Time;durP1;ratioP1;P1;durP2;ratioP2;P2;SDS_P1;SDS_P2;PMS_P1;PMS_P2;Temp;Humidity;BMP_temperature;BMP_pressure;BME280_temperature;BME280_humidity;BME280_pressure;Samples;Min_cycle;Max_cycle;Signal;HPM_P1;HPM_P2
2022/04/11 00:01:28;;;;;;;7.35;2.95;;;;;;;-0.02;96.20;98809.19;4966040;29;20023;-89
2022/04/11 00:03:53;;;;;;;3.25;2.38;;;;;;;0.08;96.09;98811.16;4982603;28;20109;-89
2022/04/11 00:06:19;;;;;;;3.30;2.28;;;;;;;0.01;96.75;98804.94;4966067;29;20033;-89
2022/04/11 00:08:44;;;;;;;4.55;2.45;;;;;;;0.10;97.36;98798.25;4965993;29;20094;-89
2022/04/11 00:11:10;;;;;;;6.78;2.55;;;;;;;0.18;96.58;98807.09;4965929;28;20314;-89
2022/04/11 00:13:35;;;;;;;3.97;2.42;;;;;;;0.23;96.00;98805.47;4966980;29;20218;-89
2022/04/11 00:16:01;;;;;;;5.20;2.33;;;;;;;0.24;95.88;98807.22;4965894;29;20042;-89
2022/04/11 00:18:26;;;;;;;7.80;2.33;;;;;;;0.30;95.83;98797.00;4965837;29;20090;-89
2022/04/11 00:20:52;;;;;;;3.70;2.17;;;;;;;0.25;95.75;98793.44;4965808;29;20023;-89
2022/04/11 00:23:18;;;;;;;3.78;2.33;;;;;;;0.22;96.14;98798.56;4965786;28;20422;-89
2022/04/11 00:25:44;;;;;;;5.00;2.65;;;;;;;0.19;96.28;98793.31;4965716;29;20061;-89
2022/04/11 00:28:09;;;;;;;5.13;2.38;;;;;;;0.24;96.46;98789.97;4965687;29;20022;-89
2022/04/11 00:30:35;;;;;;;6.38;2.92;;;;;;;0.25;96.06;98783.97;4966749;29;20023;-89
2022/04/11 00:33:01;;;;;;;8.40;3.35;;;;;;;0.08;96.44;98784.41;4965449;29;20030;-89
2022/04/11 00:35:26;;;;;;;11.90;3.53;;;;;;;0.23;97.36;98784.75;4965605;29;20027;-89
2022/04/11 00:37:52;;;;;;;5.18;2.55;;;;;;;0.19;97.32;98777.78;4965531;29;20095;-89
2022/04/11 00:40:19;;;;;;;5.80;3.17;;;;;;;0.32;97.24;98774.63;4965420;29;20025;-89
2022/04/11 00:42:48;;;;;;;17.15;3.80;;;;;;;0.33;96.91;98766.00;4965460;29;20047;-89
2022/04/11 00:45:14;;;;;;;4.50;2.63;;;;;;;0.38;97.06;98772.19;4965293;29;20213;-89
2022/04/11 00:47:39;;;;;;;8.05;2.03;;;;;;;0.35;96.95;98769.53;4965545;29;20027;-89
2022/04/11 00:50:08;;;;;;;5.97;2.80;;;;;;;0.38;96.62;98764.41;4965182;29;20326;-89
2022/04/11 00:52:37;;;;;;;4.03;2.42;;;;;;;0.43;96.43;98747.25;4965183;29;20246;-89
2022/04/11 00:55:04;;;;;;;11.52;3.33;;;;;;;0.45;96.42;98750.75;4965201;29;20023;-89
2022/04/11 00:57:30;;;;;;;10.93;4.03;;;;;;;0.51;96.35;98745.72;4966703;29;20026;-89
2022/04/11 00:59:57;;;;;;;7.82;3.03;;;;;;;0.52;96.24;98743.16;4966574;29;20027;-89
2022/04/11 01:02:22;;;;;;;5.55;2.13;;;;;;;0.63;96.34;98746.00;4965267;28;20030;-89
2022/04/11 01:04:48;;;;;;;5.85;2.60;;;;;;;0.66;95.30;98735.69;4965183;28;20027;-89
2022/04/11 01:07:13;;;;;;;13.05;3.78;;;;;;;0.63;95.78;98738.22;4965072;29;20049;-89
2022/04/11 01:09:40;;;;;;;4.40;2.80;;;;;;;0.57;95.78;98731.16;4965147;29;20027;-89
2022/04/11 01:12:06;;;;;;;7.13;3.13;;;;;;;0.66;95.59;98730.53;4964877;29;20023;-89
2022/04/11 01:14:32;;;;;;;4.63;2.38;;;;;;;0.71;95.32;98740.13;4965010;28;20326;-89
2022/04/11 01:16:58;;;;;;;5.13;3.20;;;;;;;0.64;95.63;98727.00;4965345;29;20034;-89
2022/04/11 01:19:26;;;;;;;4.20;2.30;;;;;;;0.59;95.63;98728.63;4965341;28;20026;-89
2022/04/11 01:21:51;;;;;;;9.75;2.85;;;;;;;0.68;95.84;98728.81;4964919;29;20070;-89
2022/04/11 01:24:21;;;;;;;9.93;2.88;;;;;;;0.76;95.51;98722.09;4964713;28;20331;-89
2022/04/11 01:26:47;;;;;;;7.03;2.55;;;;;;;0.70;95.92;98725.44;4964875;29;20262;-89
2022/04/11 01:29:14;;;;;;;3.38;2.20;;;;;;;0.78;95.79;98715.19;4965021;29;20019;-89
2022/04/11 01:31:39;;;;;;;4.57;2.50;;;;;;;0.75;95.98;98710.84;4964901;29;20019;-89
2022/04/11 01:34:05;;;;;;;6.80;3.25;;;;;;;0.88;95.40;98717.16;4964753;29;20259;-89
2022/04/11 01:36:30;;;;;;;6.85;4.00;;;;;;;0.91;95.22;98718.06;4964825;29;20023;-89
2022/04/11 01:38:56;;;;;;;7.28;3.15;;;;;;;0.81;95.37;98705.78;4965164;29;20026;-89
2022/04/11 01:41:21;;;;;;;4.32;2.40;;;;;;;0.81;95.63;98704.91;4980832;28;20020;-89
2022/04/11 01:43:46;;;;;;;7.15;3.53;;;;;;;0.88;95.60;98701.63;4964857;29;20027;-89
2022/04/11 01:46:12;;;;;;;7.38;3.58;;;;;;;0.95;95.73;98693.09;4964819;29;20027;-89
2022/04/11 01:48:37;;;;;;;7.82;3.92;;;;;;;0.99;95.87;98697.50;4964653;29;20066;-89
2022/04/11 01:51:03;;;;;;;5.05;3.08;;;;;;;1.04;95.79;98695.88;4964749;29;20318;-89
2022/04/11 01:53:29;;;;;;;7.50;3.60;;;;;;;0.95;95.58;98693.97;4965749;29;20023;-89
2022/04/11 01:55:55;;;;;;;4.68;2.88;;;;;;;0.92;95.93;98700.81;4964556;29;20030;-89
2022/04/11 01:58:20;;;;;;;4.70;2.85;;;;;;;0.96;96.22;98705.22;4964794;29;20019;-89
2022/04/11 02:00:46;;;;;;;7.07;3.42;;;;;;;0.89;96.10;98698.16;4964617;29;20054;-89
2022/04/11 02:03:11;;;;;;;8.32;3.85;;;;;;;0.94;96.39;98691.34;4965024;29;20063;-89
2022/04/11 02:05:38;;;;;;;8.00;3.20;;;;;;;0.82;96.59;98685.94;4964559;29;20337;-89
2022/04/11 02:08:07;;;;;;;5.90;3.50;;;;;;;0.78;97.26;98681.53;4964616;29;20026;-89
2022/04/11 02:10:33;;;;;;;7.43;3.65;;;;;;;0.92;97.27;98683.53;4964540;29;20031;-90
2022/04/11 02:12:59;;;;;;;11.27;3.75;;;;;;;0.88;96.26;98670.53;4964554;29;20023;-89
2022/04/11 02:15:24;;;;;;;5.95;3.13;;;;;;;0.87;96.46;98679.13;4964512;29;20027;-89
2022/04/11 02:17:52;;;;;;;9.10;3.97;;;;;;;0.85;96.73;98670.47;4964573;29;20314;-89
2022/04/11 02:20:18;;;;;;;6.50;3.22;;;;;;;0.87;97.50;98673.94;4965604;28;20058;-89
2022/04/11 02:22:49;;;;;;;11.98;4.07;;;;;;;0.93;96.98;98663.69;4967934;29;20039;-89
2022/04/11 02:25:15;;;;;;;6.53;3.58;;;;;;;0.80;97.04;98651.34;4967984;28;20169;-89
2022/04/11 02:27:41;;;;;;;10.52;4.38;;;;;;;0.71;97.19;98652.06;4967880;29;20019;-89
2022/04/11 02:30:08;;;;;;;5.95;3.28;;;;;;;0.88;97.17;98652.38;4967858;29;20087;-89
2022/04/11 02:32:34;;;;;;;7.70;3.72;;;;;;;0.88;96.99;98654.97;4967940;29;20019;-89
2022/04/11 02:34:59;;;;;;;10.68;3.60;;;;;;;0.95;97.19;98657.69;4967779;29;20318;-89
2022/04/11 02:37:25;;;;;;;6.20;3.15;;;;;;;1.01;96.73;98662.13;4967716;29;20260;-89
2022/04/11 02:39:50;;;;;;;14.77;3.50;;;;;;;0.85;96.00;98660.09;4969045;29;20023;-89
2022/04/11 02:42:24;;;;;;;7.40;3.63;;;;;;;0.74;96.16;98656.41;4967966;29;20353;-89
2022/04/11 02:44:50;;;;;;;8.30;3.85;;;;;;;0.51;96.72;98652.50;4967467;29;20023;-89
2022/04/11 02:47:16;;;;;;;6.18;3.80;;;;;;;0.53;97.72;98645.66;4967477;29;20042;-89
2022/04/11 02:49:42;;;;;;;8.98;4.00;;;;;;;0.55;98.65;98642.25;4968610;29;20314;-89
2022/04/11 02:52:07;;;;;;;8.07;3.67;;;;;;;0.57;98.76;98642.28;4967284;29;20019;-89
2022/04/11 02:54:33;;;;;;;3.95;2.55;;;;;;;0.63;98.53;98647.56;4967307;29;20023;-89
2022/04/11 02:56:58;;;;;;;5.72;3.17;;;;;;;0.58;97.89;98639.72;4968810;29;20054;-89
2022/04/11 02:59:24;;;;;;;7.47;3.08;;;;;;;0.54;97.51;98637.03;4968490;29;20046;-89
2022/04/11 03:01:49;;;;;;;4.60;3.05;;;;;;;0.55;97.52;98625.81;4967250;29;20324;-89
2022/04/11 03:04:18;;;;;;;8.55;2.65;;;;;;;0.56;97.37;98630.16;4967271;29;20094;-89
2022/04/11 03:06:43;;;;;;;4.68;2.55;;;;;;;0.54;97.17;98637.03;4967140;28;20029;-89
2022/04/11 03:09:09;;;;;;;5.40;2.55;;;;;;;0.45;97.40;98636.84;4967137;29;20218;-89
2022/04/11 03:11:34;;;;;;;11.38;2.97;;;;;;;0.38;97.43;98627.22;4967014;29;20023;-89
2022/04/11 03:14:00;;;;;;;3.53;2.60;;;;;;;0.35;97.40;98634.91;4968041;29;20043;-89
2022/04/11 03:16:26;;;;;;;4.30;2.33;;;;;;;0.31;97.52;98638.28;4966953;29;20023;-89
2022/04/11 03:18:51;;;;;;;4.20;2.42;;;;;;;0.28;97.47;98635.63;4966985;29;20027;-89
2022/04/11 03:21:17;;;;;;;5.53;3.13;;;;;;;0.27;97.70;98631.28;4966691;29;20070;-89
2022/04/11 03:23:42;;;;;;;7.10;2.85;;;;;;;0.23;97.64;98634.66;4966632;29;20031;-90
2022/04/11 03:26:08;;;;;;;3.83;2.75;;;;;;;0.28;98.56;98638.22;4967935;29;20142;-89
2022/04/11 03:28:33;;;;;;;8.93;2.92;;;;;;;0.20;98.67;98635.47;4982789;28;20204;-89
2022/04/11 03:31:00;;;;;;;7.88;2.90;;;;;;;0.17;99.24;98629.34;4967428;28;20086;-89
2022/04/11 03:33:25;;;;;;;10.80;3.15;;;;;;;0.23;99.44;98640.72;4967248;29;20020;-89
2022/04/11 03:35:51;;;;;;;10.10;2.63;;;;;;;0.25;98.57;98643.34;4966648;29;20214;-89
2022/04/11 03:38:17;;;;;;;13.65;2.95;;;;;;;0.21;98.94;98636.34;4966761;29;20030;-89
2022/04/11 03:40:42;;;;;;;14.80;3.28;;;;;;;0.17;98.89;98629.34;4966797;29;20067;-89
2022/04/11 03:43:08;;;;;;;4.38;3.05;;;;;;;0.18;99.72;98633.72;4967576;29;20026;-89
2022/04/11 03:45:33;;;;;;;3.90;2.25;;;;;;;0.22;98.94;98632.91;4966512;29;20382;-89
2022/04/11 03:47:59;;;;;;;4.15;2.53;;;;;;;0.17;98.57;98624.19;4966428;29;20023;-89
2022/04/11 03:50:24;;;;;;;6.10;2.85;;;;;;;0.10;98.47;98622.31;4966705;29;20050;-89
2022/04/11 03:52:50;;;;;;;5.88;3.45;;;;;;;0.03;98.08;98617.00;4967376;29;20023;-89
2022/04/11 03:55:15;;;;;;;4.53;2.53;;;;;;;-0.02;98.72;98617.75;4967432;29;20023;-89
2022/04/11 03:57:41;;;;;;;3.50;2.20;;;;;;;0.02;98.41;98619.56;4982356;28;20023;-89
2022/04/11 04:00:07;;;;;;;8.52;3.00;;;;;;;0.03;98.06;98625.59;4966358;29;20019;-89
2022/04/11 04:02:33;;;;;;;3.85;2.50;;;;;;;-0.13;97.81;98614.03;4966152;29;20062;-89
2022/04/11 04:04:58;;;;;;;3.70;2.38;;;;;;;-0.24;97.94;98606.06;4966215;29;20023;-89
2022/04/11 04:07:24;;;;;;;2.85;2.05;;;;;;;-0.22;98.64;98604.38;4966159;29;20027;-89
2022/04/11 04:09:49;;;;;;;2.75;2.30;;;;;;;-0.25;98.55;98604.31;4967217;29;20027;-90
2022/04/11 04:12:19;;;;;;;2.97;2.13;;;;;;;-0.20;98.75;98607.00;4965904;29;20274;-89
2022/04/11 04:14:46;;;;;;;5.22;2.45;;;;;;;-0.13;98.53;98609.75;4965937;29;20042;-89
2022/04/11 04:17:11;;;;;;;3.42;2.25;;;;;;;-0.18;98.73;98608.75;4965809;29;20019;-89
2022/04/11 04:19:37;;;;;;;4.15;2.85;;;;;;;-0.28;98.18;98599.06;4965895;28;20034;-89
2022/04/11 04:22:02;;;;;;;6.13;2.35;;;;;;;-0.31;97.94;98608.47;4965756;29;20081;-89
2022/04/11 04:24:28;;;;;;;3.67;2.17;;;;;;;-0.34;97.41;98614.44;4966721;29;20043;-89
2022/04/11 04:26:53;;;;;;;8.68;2.83;;;;;;;-0.33;98.05;98600.69;4965594;29;20027;-89
2022/04/11 04:29:20;;;;;;;3.90;2.42;;;;;;;-0.35;98.07;98602.34;4965778;29;20027;-89
2022/04/11 04:31:47;;;;;;;5.60;2.88;;;;;;;-0.31;98.36;98604.16;4965602;28;20023;-89
2022/04/11 04:34:13;;;;;;;4.95;2.83;;;;;;;-0.39;97.87;98605.72;4965481;28;20027;-89
2022/04/11 04:36:39;;;;;;;3.28;2.28;;;;;;;-0.38;98.07;98597.13;4965409;29;20054;-89
2022/04/11 04:39:05;;;;;;;4.95;2.47;;;;;;;-0.39;97.96;98597.06;4965521;29;20038;-89
2022/04/11 04:41:30;;;;;;;2.80;2.10;;;;;;;-0.41;98.03;98586.69;4965541;29;20106;-89
2022/04/11 04:43:55;;;;;;;4.90;2.22;;;;;;;-0.42;97.94;98590.13;4965582;28;20023;-89
2022/04/11 04:46:21;;;;;;;2.97;2.28;;;;;;;-0.38;97.85;98586.78;4965467;29;20018;-89
2022/04/11 04:48:47;;;;;;;3.65;2.30;;;;;;;-0.43;97.84;98588.41;4965426;29;20019;-89
2022/04/11 04:51:12;;;;;;;5.22;2.40;;;;;;;-0.33;97.42;98590.34;4965409;28;20030;-89
2022/04/11 04:53:38;;;;;;;5.78;2.60;;;;;;;-0.35;97.46;98592.00;4965174;29;20051;-89
2022/04/11 04:56:03;;;;;;;4.63;3.08;;;;;;;-0.33;97.17;98590.34;4965179;29;20023;-89
2022/04/11 04:58:29;;;;;;;6.90;2.13;;;;;;;-0.33;96.93;98600.69;4965631;29;20023;-89
2022/04/11 05:00:54;;;;;;;3.15;2.10;;;;;;;-0.40;96.94;98585.88;4965518;29;20027;-89
2022/04/11 05:03:20;;;;;;;1.92;1.70;;;;;;;-0.33;96.96;98580.00;4965399;29;20015;-89
2022/04/11 05:05:45;;;;;;;5.38;2.55;;;;;;;-0.37;97.30;98578.19;4965204;29;20022;-89
2022/04/11 05:08:11;;;;;;;11.93;2.90;;;;;;;-0.27;97.48;98582.72;4965295;29;20023;-89
2022/04/11 05:10:36;;;;;;;6.03;3.03;;;;;;;-0.13;97.19;98589.06;4965070;29;20078;-89
2022/04/11 05:13:02;;;;;;;6.20;2.67;;;;;;;-0.15;96.95;98588.13;4964955;29;20027;-89
2022/04/11 05:15:27;;;;;;;6.50;2.35;;;;;;;-0.07;96.90;98594.38;4966098;29;20027;-89
2022/04/11 05:17:53;;;;;;;6.18;3.28;;;;;;;-0.01;96.35;98594.50;4964999;29;20215;-89
2022/04/11 05:20:19;;;;;;;7.65;2.63;;;;;;;0.00;97.04;98590.22;4966081;29;20282;-89
2022/04/11 05:22:44;;;;;;;11.68;2.80;;;;;;;0.22;96.44;98588.94;4964684;29;20035;-89
2022/04/11 05:25:10;;;;;;;3.70;2.40;;;;;;;0.46;96.09;98595.44;4965183;29;20019;-89
2022/04/11 05:27:35;;;;;;;3.40;2.08;;;;;;;0.63;95.67;98600.97;4965179;29;20099;-89
2022/04/11 05:30:05;;;;;;;9.95;4.43;;;;;;;1.19;94.56;98595.03;4965124;29;20023;-89
2022/04/11 05:32:31;;;;;;;8.43;4.00;;;;;;;1.98;92.20;98592.81;4964839;29;20038;-90
2022/04/11 05:34:56;;;;;;;8.18;3.75;;;;;;;2.63;88.06;98599.69;4964710;29;20023;-89
2022/04/11 05:37:22;;;;;;;10.90;4.72;;;;;;;3.17;85.68;98597.66;4964760;29;20070;-90
2022/04/11 05:39:47;;;;;;;7.50;3.70;;;;;;;3.73;82.61;98598.06;4964660;29;20070;-90
2022/04/11 05:42:13;;;;;;;7.00;3.30;;;;;;;4.04;79.70;98606.09;4964702;28;20023;-90
2022/04/11 05:44:38;;;;;;;18.50;7.97;;;;;;;4.33;79.39;98609.72;4964695;29;20042;-90
2022/04/11 05:47:04;;;;;;;17.45;9.35;;;;;;;4.72;78.86;98610.72;4964659;29;20065;-90
2022/04/11 05:49:29;;;;;;;37.33;17.63;;;;;;;5.09;77.22;98612.59;4964645;29;20098;-90
2022/04/11 05:51:55;;;;;;;25.23;11.57;;;;;;;5.43;75.19;98606.50;4964636;28;20023;-90
2022/04/11 05:54:20;;;;;;;10.38;5.68;;;;;;;5.85;75.14;98616.97;4964647;28;20024;-90
2022/04/11 05:56:46;;;;;;;13.10;6.55;;;;;;;6.12;73.74;98620.44;4969205;29;20214;-90
2022/04/11 05:59:11;;;;;;;12.10;7.28;;;;;;;6.24;72.89;98619.53;4968333;29;20019;-90
2022/04/11 06:01:38;;;;;;;11.80;5.65;;;;;;;6.61;71.34;98622.00;4984393;28;20333;-90
2022/04/11 06:04:03;;;;;;;12.90;6.78;;;;;;;7.19;70.64;98608.63;4968272;29;20015;-90
2022/04/11 06:06:29;;;;;;;9.93;6.32;;;;;;;7.54;70.54;98620.59;4969298;29;20034;-90
2022/04/11 06:08:54;;;;;;;16.30;6.50;;;;;;;7.54;68.99;98612.75;4968112;29;20027;-90
2022/04/11 06:11:20;;;;;;;9.63;5.57;;;;;;;8.10;68.02;98613.09;4968206;29;20019;-90
2022/04/11 06:13:45;;;;;;;11.23;5.60;;;;;;;8.52;67.09;98612.66;4968001;29;20078;-90
2022/04/11 06:16:14;;;;;;;8.23;4.75;;;;;;;8.70;65.89;98601.94;4968112;29;20098;-90
2022/04/11 06:18:40;;;;;;;8.55;4.53;;;;;;;9.19;67.09;98611.78;4967919;29;20019;-90
2022/04/11 06:21:06;;;;;;;10.27;4.68;;;;;;;9.23;64.48;98610.84;4968047;29;20025;-90
2022/04/11 06:23:32;;;;;;;9.07;4.15;;;;;;;9.70;64.31;98616.25;4967919;29;20071;-90
2022/04/11 06:25:57;;;;;;;5.60;3.45;;;;;;;9.73;63.56;98616.19;4967754;29;20019;-90
2022/04/11 06:28:23;;;;;;;9.85;3.92;;;;;;;9.93;65.12;98616.72;4967838;29;20061;-90
2022/04/11 06:30:49;;;;;;;8.65;3.10;;;;;;;10.67;62.23;98621.53;4968857;29;20090;-90
2022/04/11 06:33:14;;;;;;;10.75;3.35;;;;;;;10.11;61.62;98608.56;4969113;29;20314;-90
2022/04/11 06:35:40;;;;;;;6.75;3.25;;;;;;;10.96;61.82;98608.63;4967900;29;20027;-90
2022/04/11 06:38:05;;;;;;;6.68;3.13;;;;;;;11.69;59.96;98614.00;4967580;29;20023;-90
2022/04/11 06:40:31;;;;;;;6.82;3.42;;;;;;;11.53;59.76;98607.31;4967512;29;20023;-90
2022/04/11 06:42:56;;;;;;;6.35;2.95;;;;;;;12.03;59.06;98609.63;4968634;29;20046;-91
2022/04/11 06:45:22;;;;;;;4.88;2.88;;;;;;;12.32;57.16;98612.38;4967899;29;20023;-90
2022/04/11 06:47:48;;;;;;;7.50;2.97;;;;;;;12.45;55.53;98608.50;4967663;29;20023;-91
2022/04/11 06:50:16;;;;;;;6.97;2.70;;;;;;;13.11;54.13;98603.09;4967635;29;20023;-91
2022/04/11 06:52:42;;;;;;;5.07;2.78;;;;;;;14.05;51.57;98608.88;4967252;29;20031;-91
2022/04/11 06:55:08;;;;;;;4.28;2.33;;;;;;;13.86;52.51;98607.75;4967342;29;20102;-91
2022/04/11 06:57:34;;;;;;;3.75;2.13;;;;;;;14.34;51.05;98611.44;4967304;29;20030;-91
2022/04/11 07:00:00;;;;;;;6.35;2.45;;;;;;;14.83;49.32;98606.09;4967128;29;20058;-91
2022/04/11 07:02:26;;;;;;;8.98;2.65;;;;;;;15.37;49.73;98621.78;4967451;29;20019;-91
2022/04/11 07:04:52;;;;;;;4.45;2.60;;;;;;;14.52;46.42;98608.13;4967165;29;20098;-91
2022/04/11 07:07:18;;;;;;;5.90;2.42;;;;;;;14.03;48.52;98616.00;4966977;28;20027;-91
2022/04/11 07:09:43;;;;;;;7.55;3.13;;;;;;;14.75;48.96;98624.09;4968506;29;20027;-91
2022/04/11 07:12:09;;;;;;;4.97;2.83;;;;;;;14.83;50.55;98624.66;4967027;29;20283;-91
2022/04/11 07:14:34;;;;;;;5.30;2.22;;;;;;;14.47;47.79;98618.91;4966901;29;20203;-91
2022/04/11 07:17:00;;;;;;;5.25;2.67;;;;;;;14.74;48.22;98611.75;4966869;29;20342;-90
2022/04/11 07:19:25;;;;;;;5.13;2.80;;;;;;;15.32;48.15;98616.63;4967002;29;20078;-91
2022/04/11 07:21:51;;;;;;;8.60;2.90;;;;;;;15.38;46.79;98616.41;4966783;29;20202;-90
2022/04/11 07:24:16;;;;;;;4.22;2.38;;;;;;;14.30;48.04;98609.81;4966645;29;20043;-91
2022/04/11 07:26:42;;;;;;;4.65;2.35;;;;;;;15.03;48.13;98609.75;4966859;29;20018;-91
2022/04/11 07:29:07;;;;;;;10.43;2.45;;;;;;;14.04;46.98;98607.13;4966832;29;20027;-91
2022/04/11 07:31:33;;;;;;;4.18;2.08;;;;;;;14.12;47.60;98610.41;4966850;29;20030;-91
2022/04/11 07:33:58;;;;;;;2.92;1.70;;;;;;;14.90;47.05;98612.91;4966895;29;20051;-91
2022/04/11 07:36:24;;;;;;;5.43;2.10;;;;;;;14.71;46.30;98606.56;4966569;29;20023;-91
2022/04/11 07:38:49;;;;;;;5.57;1.80;;;;;;;15.00;44.85;98606.38;4966526;29;20027;-91
2022/04/11 07:41:14;;;;;;;2.20;1.70;;;;;;;15.04;44.97;98600.03;4966495;29;20034;-90
2022/04/11 07:43:40;;;;;;;4.07;1.95;;;;;;;15.19;45.08;98599.47;4966505;29;20019;-90
2022/04/11 07:46:05;;;;;;;2.85;1.33;;;;;;;15.55;43.51;98602.47;4966432;28;20034;-91
2022/04/11 07:48:35;;;;;;;4.75;2.03;;;;;;;14.96;43.33;98586.19;4966366;29;20102;-90
2022/04/11 07:51:00;;;;;;;2.58;1.73;;;;;;;16.03;43.33;98595.19;4966376;29;20027;-90
2022/04/11 07:53:27;;;;;;;3.75;1.83;;;;;;;14.92;44.23;98585.44;4966212;29;20280;-91
2022/04/11 07:55:52;;;;;;;2.78;1.88;;;;;;;15.16;46.53;98583.66;4966307;29;20138;-91
2022/04/11 07:58:19;;;;;;;3.00;1.50;;;;;;;16.26;42.67;98581.81;4966199;29;20031;-91
2022/04/11 08:00:45;;;;;;;3.15;1.52;;;;;;;15.19;44.49;98571.13;4966096;29;20310;-91
2022/04/11 08:03:11;;;;;;;3.40;1.77;;;;;;;15.40;44.95;98577.41;4966111;29;20374;-91
2022/04/11 08:05:36;;;;;;;5.32;2.28;;;;;;;16.08;42.76;98578.16;4966082;29;20026;-91
2022/04/11 08:08:02;;;;;;;3.17;1.58;;;;;;;16.30;41.39;98584.25;4966379;29;20034;-90
2022/04/11 08:10:27;;;;;;;2.40;1.38;;;;;;;15.52;42.06;98571.63;4966927;29;20023;-91
2022/04/11 08:12:58;;;;;;;3.70;1.35;;;;;;;15.36;42.98;98562.53;4965839;29;20106;-91
2022/04/11 08:15:25;;;;;;;1.73;1.15;;;;;;;15.90;41.42;98568.28;4965926;29;20023;-90
2022/04/11 08:17:51;;;;;;;3.50;1.55;;;;;;;16.28;41.26;98572.84;4965329;28;20019;-91
2022/04/11 08:20:17;;;;;;;2.95;1.52;;;;;;;16.66;39.97;98573.84;4965842;29;20030;-91
2022/04/11 08:22:42;;;;;;;2.80;1.65;;;;;;;16.51;40.19;98574.50;4965559;29;20055;-91
2022/04/11 08:25:08;;;;;;;4.50;1.52;;;;;;;16.58;39.68;98568.03;4966835;29;20027;-91
2022/04/11 08:27:35;;;;;;;4.72;1.52;;;;;;;16.54;39.58;98567.28;4966056;29;20027;-91
2022/04/11 08:30:01;;;;;;;3.15;1.35;;;;;;;16.92;39.20;98569.09;4965579;28;20027;-91
2022/04/11 08:32:26;;;;;;;4.20;1.40;;;;;;;17.03;38.80;98572.09;4965478;29;20315;-90
2022/04/11 08:34:52;;;;;;;3.35;1.50;;;;;;;16.83;39.84;98553.56;4965570;28;20027;-91
2022/04/11 08:37:17;;;;;;;2.50;1.20;;;;;;;17.49;38.14;98567.34;4965554;29;20218;-91
2022/04/11 08:39:43;;;;;;;3.15;1.45;;;;;;;17.01;38.82;98552.72;4965769;29;20066;-91
2022/04/11 08:42:08;;;;;;;5.25;1.55;;;;;;;17.15;38.80;98552.94;4965428;29;20110;-91
2022/04/11 08:44:36;;;;;;;1.63;0.98;;;;;;;16.64;37.84;98547.34;4965466;29;20019;-91
2022/04/11 08:47:04;;;;;;;3.00;1.58;;;;;;;16.48;38.20;98551.63;4965505;29;20026;-91
2022/04/11 08:49:30;;;;;;;2.70;1.50;;;;;;;15.94;36.98;98553.94;4965453;28;20023;-91
2022/04/11 08:51:56;;;;;;;1.85;1.10;;;;;;;15.51;37.75;98554.00;4965288;29;20199;-91
2022/04/11 08:54:22;;;;;;;1.60;1.20;;;;;;;15.86;37.82;98549.91;4965405;29;20027;-91
2022/04/11 08:56:47;;;;;;;5.03;1.48;;;;;;;16.30;38.11;98539.09;4965470;29;20029;-91
2022/04/11 08:59:14;;;;;;;2.70;1.10;;;;;;;16.34;38.64;98532.75;4965211;29;20023;-91
2022/04/11 09:01:39;;;;;;;3.35;1.23;;;;;;;16.04;39.52;98534.03;4965091;29;20047;-91
2022/04/11 09:04:07;;;;;;;1.58;1.00;;;;;;;17.27;37.41;98540.00;4965089;29;20019;-91
2022/04/11 09:06:33;;;;;;;2.92;1.10;;;;;;;17.44;35.63;98545.41;4965094;29;20370;-91
2022/04/11 09:08:59;;;;;;;3.53;1.35;;;;;;;16.75;36.87;98529.13;4965293;29;20030;-90
2022/04/11 09:11:33;;;;;;;3.80;1.25;;;;;;;17.24;36.09;98539.19;4965125;29;20027;-91
2022/04/11 09:14:00;;;;;;;3.38;1.00;;;;;;;16.76;37.99;98538.81;4965246;29;20036;-90
2022/04/11 09:16:49;;;;;;;1.77;1.20;;;;;;;16.80;37.27;98537.75;4965002;28;20047;-91
2022/04/11 09:19:23;;;;;;;4.00;1.38;;;;;;;16.52;37.18;98537.25;4962231;29;20035;-91
2022/04/11 09:21:50;;;;;;;4.53;1.75;;;;;;;17.15;36.41;98544.94;4964901;29;20031;-91
2022/04/11 09:24:19;;;;;;;4.10;1.40;;;;;;;16.92;37.22;98549.59;4964878;29;20110;-91
2022/04/11 09:26:50;;;;;;;4.43;1.30;;;;;;;16.53;36.59;98533.69;4965276;29;20030;-91
2022/04/11 09:29:15;;;;;;;4.65;1.58;;;;;;;17.32;36.43;98537.97;4964843;28;20027;-91
2022/04/11 09:31:42;;;;;;;3.38;1.10;;;;;;;17.59;36.22;98539.34;4968519;29;20098;-91
2022/04/11 09:34:19;;;;;;;2.08;1.10;;;;;;;17.27;36.47;98533.75;4968656;29;20225;-91
2022/04/11 09:36:50;;;;;;;2.08;1.10;;;;;;;16.90;35.74;98525.75;4968899;29;20265;-91
2022/04/11 09:39:19;;;;;;;2.90;1.23;;;;;;;16.95;35.84;98526.41;4968875;29;20045;-91
2022/04/11 09:41:49;;;;;;;2.47;1.25;;;;;;;17.52;36.25;98545.91;4968816;29;20271;-91
2022/04/11 09:44:25;;;;;;;5.13;1.77;;;;;;;16.82;36.77;98524.38;4968792;29;20015;-91
2022/04/11 09:46:52;;;;;;;3.45;1.30;;;;;;;16.86;36.79;98526.84;4968876;29;20030;-91
2022/04/11 09:49:18;;;;;;;3.35;1.10;;;;;;;17.44;36.01;98524.13;4968900;29;20318;-91
2022/04/11 09:52:07;;;;;;;3.88;1.23;;;;;;;17.31;36.24;98525.63;4968655;29;20054;-91
2022/04/11 09:54:37;;;;;;;3.75;1.60;;;;;;;17.52;37.14;98524.63;4968586;29;20034;-91
2022/04/11 09:57:05;;;;;;;2.95;0.93;;;;;;;17.40;36.76;98519.84;4968901;28;20303;-91
2022/04/11 09:59:31;;;;;;;1.52;1.00;;;;;;;17.51;36.54;98531.72;4968543;29;20023;-91
2022/04/11 10:01:57;;;;;;;3.15;1.27;;;;;;;17.34;38.56;98520.16;4968494;29;20094;-91
2022/04/11 10:04:23;;;;;;;2.50;1.17;;;;;;;17.79;36.34;98521.47;4968289;29;20044;-91
2022/04/11 10:06:50;;;;;;;3.40;1.20;;;;;;;17.88;36.06;98514.81;4968274;29;20027;-91
2022/04/11 10:09:16;;;;;;;2.22;1.15;;;;;;;18.37;35.03;98498.03;4968171;29;20102;-91
2022/04/11 10:11:43;;;;;;;1.75;1.00;;;;;;;18.27;35.70;98487.00;4968574;29;20325;-91
2022/04/11 10:14:23;;;;;;;1.95;1.10;;;;;;;18.81;34.35;98504.53;4968128;29;20050;-91
2022/04/11 10:16:51;;;;;;;1.17;0.90;;;;;;;18.84;35.52;98491.91;4968046;29;20019;-91
2022/04/11 10:19:22;;;;;;;2.10;1.10;;;;;;;18.30;35.29;98486.81;4968075;29;20030;-91
2022/04/11 10:21:48;;;;;;;2.60;1.08;;;;;;;18.01;35.70;98483.94;4968344;29;20027;-91
2022/04/11 10:24:23;;;;;;;2.90;1.60;;;;;;;18.45;34.87;98477.19;4967766;29;20051;-91
2022/04/11 10:26:55;;;;;;;1.70;1.02;;;;;;;18.28;36.20;98485.16;4967978;29;20314;-91
2022/04/11 10:29:36;;;;;;;2.38;1.10;;;;;;;17.78;37.17;98492.25;4967992;29;20155;-91
2022/04/11 10:32:09;;;;;;;1.15;0.85;;;;;;;17.92;36.05;98484.41;4967850;29;20022;-91
2022/04/11 10:34:45;;;;;;;1.88;1.02;;;;;;;18.34;35.85;98471.53;4967894;29;20070;-91
2022/04/11 10:37:11;;;;;;;2.03;1.17;;;;;;;17.93;36.27;98487.00;4967650;29;20035;-91
2022/04/11 10:39:37;;;;;;;1.20;0.90;;;;;;;17.36;33.59;98483.66;4967830;29;20204;-91
2022/04/11 10:42:06;;;;;;;1.65;0.80;;;;;;;17.76;34.31;98478.13;4967297;28;20034;-91
2022/04/11 10:44:45;;;;;;;3.28;1.00;;;;;;;17.81;34.65;98462.81;4967656;29;20032;-91
2022/04/11 10:47:11;;;;;;;4.05;0.77;;;;;;;18.13;34.62;98459.34;4968055;29;20090;-91
2022/04/11 10:49:49;;;;;;;1.00;0.70;;;;;;;17.86;35.40;98453.63;4967532;29;20027;-91
2022/04/11 10:52:29;;;;;;;2.38;0.80;;;;;;;18.11;33.67;98463.88;4967479;29;20026;-91
2022/04/11 10:54:57;;;;;;;1.73;0.80;;;;;;;17.81;33.79;98454.81;4967605;29;20038;-91
2022/04/11 10:57:44;;;;;;;3.58;0.80;;;;;;;18.08;32.17;98443.59;4967481;29;20023;-91
2022/04/11 11:00:27;;;;;;;0.88;0.68;;;;;;;18.36;33.57;98440.34;4967619;29;20070;-91
2022/04/11 11:02:52;;;;;;;3.63;1.48;;;;;;;17.92;33.00;98432.03;4967281;29;20019;-91
2022/04/11 11:05:28;;;;;;;0.65;0.52;;;;;;;17.50;33.72;98441.34;4967158;29;20038;-91
2022/04/11 11:08:06;;;;;;;2.25;1.00;;;;;;;17.83;34.35;98436.94;4967252;29;20266;-91
2022/04/11 11:11:02;;;;;;;2.85;0.90;;;;;;;17.72;33.17;98439.31;4967200;29;20027;-91
2022/04/11 11:13:29;;;;;;;1.80;0.93;;;;;;;17.43;32.65;98434.59;4967622;29;20043;-91
2022/04/11 11:15:55;;;;;;;2.05;0.85;;;;;;;17.91;33.19;98418.78;4967189;29;20027;-91
2022/04/11 11:18:21;;;;;;;1.48;0.77;;;;;;;18.02;33.99;98419.06;4968456;29;20023;-91
2022/04/11 11:21:05;;;;;;;3.13;0.70;;;;;;;17.72;35.47;98424.19;4967150;29;20026;-91
2022/04/11 11:23:34;;;;;;;2.97;0.88;;;;;;;17.47;34.11;98421.06;4966930;29;20039;-91
2022/04/11 11:26:13;;;;;;;2.15;0.82;;;;;;;17.89;33.83;98404.69;4966976;29;20098;-91
2022/04/11 11:28:43;;;;;;;1.05;0.60;;;;;;;18.13;33.63;98419.38;4967240;29;20298;-91
2022/04/11 11:31:09;;;;;;;2.20;0.80;;;;;;;17.75;34.54;98417.84;4966883;29;20053;-91
2022/04/11 11:33:36;;;;;;;1.92;0.90;;;;;;;17.59;33.80;98406.28;4966702;29;20250;-91
2022/04/11 11:36:02;;;;;;;2.10;0.75;;;;;;;17.32;32.54;98407.59;4982902;28;20023;-91